Columbine Hills, CO

9:32 PM MST on January 31, 2015 (GMT -0700)
Buckley Air Force Base | Change Station
CLOSE
Current Station
Airport
Location: Aurora,
Elevation: 5663 ft
Nearby Weather Stations

Elev 5663 ft 39.71 °N, 104.76 °W | Updated 34 minutes ago

Overcast
Overcast
31 °F
Feels Like 28 °F
N
4
Wind Variable Wind from NNE

Today
High -- | Low -- °F
--% Chance of Precip.
Yesterday
High -- | Low -- °F
Precip. -- in
7:09 AM 5:19 PM
Waxing Gibbous, 93% visible
Pressure 29.91 in
Visibility 10.0 miles
Clouds Mostly Cloudy 2500 ft
Overcast 5500 ft
Windchill 28 °F
Dew Point 31 °F
Humidity 99%
Rainfall 0.00 in
Snow Depth Not available.
UV 0 out of 12
Pollen .30 out of 12
Air Quality Not available.
Flu Activity Not available.
METAR KBKF 010358Z 03003KT 10SM -SN BKN025 OVC055 M01/M01 A2988 RMK AO2A SNB52 SLP126 P0000 T10061007

More Conditions Fewer Conditions

Pressure 29.91 in
Visibility 10.0 miles
Clouds Mostly Cloudy 2500 ft
Overcast 5500 ft
Windchill 28 °F
Dew Point 31 °F
Humidity 99%
Rainfall 0.00 in
Snow Depth Not available.
UV 0 out of 12
Pollen .30 out of 12
Air Quality Not available.
Flu Activity Not available.
METAR KBKF 010358Z 03003KT 10SM -SN BKN025 OVC055 M01/M01 A2988 RMK AO2A SNB52 SLP126 P0000 T10061007

More Conditions Fewer Conditions

Nowcast | as of 8:19 PM MST on January 31, 2015

Expect scattered snow showers to continue to develop over Larimer and Weld counties through the evening...and expand southward over Boulder and Denver areas between 9 and 10 PM. Snowfall rates will be around a half inch per hour in the heavier snow showers.

×

10-Day Weather Forecast

Almanac

Astronomy

Jan. 31, 2015 Rise Set
Actual Time
Civil Twilight
Nautical Twilight
Astronomical Twilight
Moon
Length of Visible Light
Length of Day
Tomorrow will be .
, % of the Moon is Illuminated

Today's Extremes

State Highs State Lows

Community

WunderPhotos

Upload Photos

1,792,312 photos uploaded!

WunderBlogs® & News

Nearby

Air Quality

  Air Quality AQ Index Pollutant
Not available.

Snow Depth

Station Depth Elevation

Earthquake Activity

City Distance Mag. Time & Date
Minimum magnitude displayed is 2.5.

Coastal Water Temperatures

Place Temperature

Nearby Weather Stations